createdAt,value
2019-05-26T00:02:03.715Z,7.43
2019-05-26T00:04:32.681Z,7.70
2019-05-26T00:07:01.706Z,7.50
2019-05-26T00:09:30.563Z,8.30
2019-05-26T00:11:59.718Z,6.93
2019-05-26T00:14:28.562Z,6.40
2019-05-26T00:16:57.512Z,6.57
2019-05-26T00:19:26.749Z,7.13
2019-05-26T00:21:56.041Z,7.03
2019-05-26T00:24:24.916Z,6.30
2019-05-26T00:26:53.789Z,6.63
2019-05-26T00:29:22.985Z,6.90
2019-05-26T00:31:51.857Z,6.90
2019-05-26T00:34:20.813Z,6.10
2019-05-26T00:36:49.758Z,6.77
2019-05-26T00:39:18.612Z,6.70
2019-05-26T00:41:47.744Z,6.47
2019-05-26T00:44:16.860Z,5.97
2019-05-26T00:46:46.527Z,6.53
2019-05-26T00:49:15.548Z,6.30
2019-05-26T00:51:44.967Z,6.43
2019-05-26T00:54:14.134Z,6.93
2019-05-26T00:56:43.200Z,6.50
2019-05-26T00:59:12.227Z,6.03
2019-05-26T01:01:41.234Z,6.27
2019-05-26T01:04:10.673Z,6.37
2019-05-26T01:06:39.606Z,7.10
2019-05-26T01:09:09.480Z,5.90
2019-05-26T01:11:38.494Z,6.27
2019-05-26T01:14:07.509Z,6.30
2019-05-26T01:16:36.511Z,6.37
2019-05-26T01:19:05.867Z,5.97
2019-05-26T01:21:34.814Z,5.97
2019-05-26T01:24:03.753Z,6.50
2019-05-26T01:26:32.672Z,6.50
2019-05-26T01:29:01.614Z,6.40
2019-05-26T01:31:30.957Z,5.90
2019-05-26T01:33:59.988Z,6.50
2019-05-26T01:36:29.393Z,6.40
2019-05-26T01:38:59.116Z,6.70
2019-05-26T01:41:28.045Z,5.93
2019-05-26T01:43:57.281Z,7.00
2019-05-26T01:46:26.432Z,5.83
2019-05-26T01:48:55.834Z,6.00
2019-05-26T01:51:24.773Z,6.70
2019-05-26T01:53:53.632Z,5.97
2019-05-26T01:56:22.553Z,6.37
2019-05-26T01:58:51.709Z,6.20
2019-05-26T02:01:20.651Z,6.40
2019-05-26T02:03:49.511Z,6.93
2019-05-26T02:06:18.893Z,5.80
2019-05-26T02:08:48.098Z,7.13
2019-05-26T02:11:17.228Z,6.60
2019-05-26T02:13:46.166Z,6.80
2019-05-26T02:16:15.701Z,6.47
2019-05-26T02:18:44.562Z,6.50
2019-05-26T02:21:14.944Z,6.10
2019-05-26T02:23:44.016Z,6.50
2019-05-26T02:26:13.026Z,6.90
2019-05-26T02:28:41.962Z,6.60
2019-05-26T02:31:10.824Z,6.70
2019-05-26T02:33:39.729Z,7.00
2019-05-26T02:36:08.640Z,6.87
2019-05-26T02:38:37.501Z,7.00
2019-05-26T02:41:06.710Z,7.20
2019-05-26T02:43:35.660Z,6.53
2019-05-26T02:46:04.840Z,6.77
2019-05-26T02:48:33.830Z,7.40
2019-05-26T02:51:02.766Z,6.63
2019-05-26T02:53:31.761Z,6.50
2019-05-26T02:56:00.781Z,7.83
2019-05-26T02:58:29.688Z,6.73
2019-05-26T03:00:59.328Z,6.77
2019-05-26T03:03:28.719Z,7.33
2019-05-26T03:05:57.968Z,7.30
2019-05-26T03:08:28.155Z,6.70
2019-05-26T03:11:00.440Z,7.00
2019-05-26T03:13:31.481Z,7.77
2019-05-26T03:16:02.393Z,7.93
2019-05-26T03:18:33.325Z,7.53
2019-05-26T03:21:05.259Z,7.63
2019-05-26T03:23:34.266Z,7.50
2019-05-26T03:26:03.288Z,8.60
2019-05-26T03:28:32.360Z,7.53
2019-05-26T03:31:01.298Z,7.70
2019-05-26T03:33:30.597Z,8.37
2019-05-26T03:35:59.864Z,7.13
2019-05-26T03:38:29.058Z,7.77
2019-05-26T03:40:57.935Z,8.00
2019-05-26T03:43:26.796Z,8.87
2019-05-26T03:46:18.506Z,8.20
2019-05-26T03:48:47.886Z,7.87
2019-05-26T03:51:16.758Z,7.97
2019-05-26T03:53:45.614Z,8.30
2019-05-26T03:56:14.554Z,8.00
2019-05-26T03:58:43.546Z,9.90
2019-05-26T04:01:12.733Z,9.37
2019-05-26T04:03:42.341Z,8.40
2019-05-26T04:06:11.642Z,9.40
2019-05-26T04:08:41.463Z,8.87
2019-05-26T04:11:10.420Z,10.43
2019-05-26T04:13:39.644Z,9.30
2019-05-26T04:16:08.670Z,9.60
2019-05-26T04:18:37.611Z,8.57
2019-05-26T04:21:06.949Z,8.87
2019-05-26T04:23:35.799Z,9.03
2019-05-26T04:26:04.858Z,8.90
2019-05-26T04:28:33.718Z,9.20
2019-05-26T04:31:03.043Z,9.07
2019-05-26T04:33:31.990Z,9.23
2019-05-26T04:36:01.207Z,9.20
2019-05-26T04:38:30.067Z,9.93
2019-05-26T04:40:59.294Z,8.83
2019-05-26T04:43:28.253Z,9.23
2019-05-26T04:45:57.262Z,9.57
2019-05-26T04:48:26.538Z,9.57
2019-05-26T04:50:55.478Z,10.17
2019-05-26T04:53:24.501Z,8.50
2019-05-26T04:55:53.506Z,8.33
2019-05-26T04:58:22.704Z,9.97
2019-05-26T05:00:51.628Z,9.53
2019-05-26T05:03:20.516Z,8.63
2019-05-26T05:05:53.458Z,9.13
2019-05-26T05:08:22.320Z,9.30
2019-05-26T05:10:51.241Z,8.50
2019-05-26T05:13:20.091Z,8.33
2019-05-26T05:15:49.009Z,8.30
2019-05-26T05:18:18.032Z,9.63
2019-05-26T05:20:46.879Z,9.30
2019-05-26T05:23:15.748Z,9.47
2019-05-26T05:25:44.602Z,10.23
2019-05-26T05:28:13.533Z,9.83
2019-05-26T05:30:42.381Z,10.33
2019-05-26T05:33:11.252Z,9.50
2019-05-26T05:35:40.177Z,10.90
2019-05-26T05:38:09.320Z,10.77
2019-05-26T05:40:38.167Z,10.93
2019-05-26T05:43:07.432Z,11.00
2019-05-26T05:45:36.427Z,10.50
2019-05-26T05:48:05.365Z,10.57
2019-05-26T05:50:34.381Z,10.20
2019-05-26T05:53:03.245Z,10.73
2019-05-26T05:55:32.790Z,10.30
2019-05-26T05:58:01.706Z,10.23
2019-05-26T06:00:30.979Z,10.83
2019-05-26T06:02:59.922Z,10.70
2019-05-26T06:05:28.909Z,9.93
2019-05-26T06:07:57.773Z,10.20
2019-05-26T06:10:26.694Z,10.33
2019-05-26T06:12:55.945Z,10.00
2019-05-26T06:15:24.955Z,10.83
2019-05-26T06:17:54.291Z,9.83
2019-05-26T06:20:24.156Z,9.20
2019-05-26T06:22:53.175Z,9.67
2019-05-26T06:25:22.113Z,9.83
2019-05-26T06:27:51.061Z,9.90
2019-05-26T06:30:20.366Z,10.13
2019-05-26T06:32:49.531Z,10.70
2019-05-26T06:35:18.464Z,10.10
2019-05-26T06:37:47.724Z,10.13
2019-05-26T06:40:17.373Z,10.33
2019-05-26T06:42:46.377Z,9.60
2019-05-26T06:45:16.340Z,9.70
2019-05-26T06:47:45.196Z,9.07
2019-05-26T06:50:14.720Z,10.33
2019-05-26T06:52:43.657Z,9.43
2019-05-26T06:55:12.861Z,10.90
2019-05-26T06:57:42.259Z,10.30
2019-05-26T07:00:12.817Z,12.07
2019-05-26T07:02:41.741Z,10.47
2019-05-26T07:05:11.662Z,10.80
2019-05-26T07:07:40.824Z,9.00
2019-05-26T07:10:09.836Z,9.57
2019-05-26T07:12:38.688Z,8.97
2019-05-26T07:15:09.218Z,8.37
2019-05-26T07:17:38.496Z,8.93
2019-05-26T07:20:07.525Z,8.27
2019-05-26T07:22:36.525Z,9.40
2019-05-26T07:25:06.378Z,8.40
2019-05-26T07:27:35.573Z,7.90
2019-05-26T07:30:05.365Z,9.07
2019-05-26T07:32:34.360Z,8.97
2019-05-26T07:35:03.320Z,8.40
2019-05-26T07:37:32.237Z,7.33
2019-05-26T07:40:01.172Z,8.00
2019-05-26T07:42:30.152Z,8.80
2019-05-26T07:44:59.025Z,8.07
2019-05-26T07:47:27.856Z,8.07
2019-05-26T07:49:56.789Z,7.60
2019-05-26T07:52:25.636Z,8.33
2019-05-26T07:54:54.565Z,7.50
2019-05-26T07:57:23.800Z,8.00
2019-05-26T07:59:52.729Z,7.67
2019-05-26T08:02:21.569Z,7.30
2019-05-26T08:04:50.428Z,6.30
2019-05-26T08:07:22.882Z,6.40
2019-05-26T08:09:50.030Z,6.87
2019-05-26T08:12:27.011Z,5.47
2019-05-26T08:14:49.469Z,5.57
2019-05-26T08:17:18.389Z,5.07
2019-05-26T08:19:48.126Z,5.03
2019-05-26T08:22:16.974Z,5.80
2019-05-26T08:24:46.009Z,5.60
2019-05-26T08:27:14.845Z,5.50
2019-05-26T08:29:44.098Z,5.43
2019-05-26T08:32:15.083Z,5.30
2019-05-26T08:34:43.784Z,6.10
2019-05-26T08:37:13.132Z,5.03
2019-05-26T08:39:41.985Z,5.07
2019-05-26T08:42:24.609Z,4.30
2019-05-26T08:44:41.511Z,5.10
2019-05-26T08:47:10.420Z,5.10
2019-05-26T08:49:39.833Z,4.40
2019-05-26T08:52:08.821Z,4.67
2019-05-26T08:54:37.687Z,4.13
2019-05-26T08:57:06.601Z,4.60
2019-05-26T08:59:35.809Z,4.77
2019-05-26T09:02:04.814Z,4.07
2019-05-26T09:04:34.007Z,4.10
2019-05-26T09:07:02.949Z,3.70
2019-05-26T09:09:31.860Z,4.43
2019-05-26T09:12:01.088Z,3.43
2019-05-26T09:14:29.936Z,4.00
2019-05-26T09:16:59.174Z,3.63
2019-05-26T09:19:28.037Z,3.60
2019-05-26T09:21:56.908Z,3.53
2019-05-26T09:24:25.852Z,3.47
2019-05-26T09:26:54.709Z,3.60
2019-05-26T09:29:23.689Z,3.73
2019-05-26T09:31:52.620Z,3.93
2019-05-26T09:34:21.821Z,3.00
2019-05-26T09:36:50.854Z,3.00
2019-05-26T09:39:19.765Z,3.97
2019-05-26T09:41:48.633Z,2.80
2019-05-26T09:44:20.977Z,3.13
2019-05-26T09:46:52.848Z,2.97
2019-05-26T09:49:21.773Z,3.43
2019-05-26T09:51:51.025Z,3.40
2019-05-26T09:54:20.026Z,3.50
2019-05-26T09:56:48.888Z,3.23
2019-05-26T09:59:17.813Z,3.27
2019-05-26T10:01:46.677Z,3.20
2019-05-26T10:04:15.520Z,3.47
2019-05-26T10:06:44.678Z,2.90
2019-05-26T10:09:13.980Z,3.43
2019-05-26T10:11:42.928Z,3.00
2019-05-26T10:14:11.850Z,2.97
2019-05-26T10:16:40.780Z,2.67
2019-05-26T10:19:09.696Z,2.33
2019-05-26T10:21:38.704Z,2.57
2019-05-26T10:24:07.649Z,3.00
2019-05-26T10:26:36.587Z,2.63
2019-05-26T10:29:05.928Z,3.07
2019-05-26T10:31:35.129Z,2.50
2019-05-26T10:34:04.247Z,2.80
2019-05-26T10:36:33.473Z,2.97
2019-05-26T10:39:02.707Z,3.10
2019-05-26T10:41:31.557Z,3.20
2019-05-26T10:44:00.478Z,3.10
2019-05-26T10:46:29.917Z,3.20
2019-05-26T10:48:58.835Z,3.30
2019-05-26T10:51:28.073Z,3.33
2019-05-26T10:53:56.912Z,3.30
2019-05-26T10:56:26.195Z,2.93
2019-05-26T10:58:55.200Z,3.03
2019-05-26T11:01:24.486Z,2.90
2019-05-26T11:03:53.417Z,3.00
2019-05-26T11:06:22.390Z,2.97
2019-05-26T11:08:51.770Z,3.13
2019-05-26T11:11:20.704Z,3.00
2019-05-26T11:14:01.871Z,3.00
2019-05-26T11:16:20.784Z,3.10
2019-05-26T11:18:49.706Z,2.90
2019-05-26T11:21:18.893Z,3.37
2019-05-26T11:23:47.804Z,3.60
2019-05-26T11:26:16.709Z,3.03
2019-05-26T11:28:45.651Z,3.17
2019-05-26T11:31:14.873Z,3.40
2019-05-26T11:33:44.058Z,3.07
2019-05-26T11:36:13.297Z,2.90
2019-05-26T11:38:42.258Z,3.17
2019-05-26T11:41:11.271Z,3.67
2019-05-26T11:43:40.448Z,3.13
2019-05-26T11:46:09.293Z,3.10
2019-05-26T11:48:39.340Z,3.30
2019-05-26T11:51:08.664Z,3.00
2019-05-26T11:53:37.602Z,3.20
2019-05-26T11:56:06.597Z,3.60
2019-05-26T11:58:35.471Z,3.30
2019-05-26T12:01:04.533Z,3.23
2019-05-26T12:03:33.473Z,3.10
2019-05-26T12:06:02.316Z,3.70
2019-05-26T12:08:31.207Z,2.97
2019-05-26T12:11:00.054Z,3.00
2019-05-26T12:13:29.067Z,3.67
2019-05-26T12:15:57.909Z,3.43
2019-05-26T12:18:26.776Z,3.17
2019-05-26T12:20:55.690Z,3.13
2019-05-26T12:23:25.058Z,2.70
2019-05-26T12:25:54.060Z,2.80
2019-05-26T12:28:23.068Z,2.80
2019-05-26T12:30:51.988Z,2.47
2019-05-26T12:33:20.845Z,3.10
2019-05-26T12:35:50.017Z,2.53
2019-05-26T12:38:18.982Z,2.70
2019-05-26T12:40:47.829Z,2.90
2019-05-26T12:43:16.775Z,2.40
2019-05-26T12:45:45.693Z,2.43
2019-05-26T12:48:14.711Z,2.80
2019-05-26T12:50:43.635Z,2.43
2019-05-26T12:53:12.497Z,2.10
2019-05-26T12:55:41.493Z,2.50
2019-05-26T12:58:10.468Z,2.20
2019-05-26T13:00:49.013Z,2.57
2019-05-26T13:03:10.074Z,2.53
2019-05-26T13:05:39.073Z,2.67
2019-05-26T13:08:08.088Z,2.10
2019-05-26T13:10:37.085Z,2.27
2019-05-26T13:13:06.101Z,2.00
2019-05-26T13:15:35.129Z,1.90
2019-05-26T13:18:04.154Z,2.07
2019-05-26T13:20:33.185Z,1.90
2019-05-26T13:23:02.150Z,1.83
2019-05-26T13:25:31.150Z,1.97
2019-05-26T13:28:00.945Z,1.80
2019-05-26T13:30:30.186Z,2.10
2019-05-26T13:32:59.033Z,2.00
2019-05-26T13:35:28.326Z,1.80
2019-05-26T13:37:57.602Z,1.83
2019-05-26T13:40:29.577Z,1.93
2019-05-26T13:42:57.651Z,2.00
2019-05-26T13:45:26.968Z,1.90
2019-05-26T13:47:55.946Z,1.90
2019-05-26T13:50:25.463Z,1.73
2019-05-26T13:52:54.657Z,1.80
2019-05-26T13:55:24.173Z,1.97
2019-05-26T13:57:53.571Z,2.00
2019-05-26T14:00:24.085Z,2.00
2019-05-26T14:02:53.405Z,2.10
2019-05-26T14:05:22.645Z,1.90
2019-05-26T14:07:51.591Z,1.73
2019-05-26T14:10:34.917Z,1.80
2019-05-26T14:13:04.662Z,1.80
2019-05-26T14:15:38.615Z,1.70
2019-05-26T14:18:05.468Z,1.73
2019-05-26T14:20:36.886Z,2.13
2019-05-26T14:23:07.304Z,2.50
2019-05-26T14:25:36.389Z,2.20
2019-05-26T14:28:05.825Z,2.20
2019-05-26T14:30:34.765Z,1.90
2019-05-26T14:33:03.770Z,1.80
2019-05-26T14:35:32.757Z,2.10
2019-05-26T14:38:01.781Z,2.10
2019-05-26T14:40:30.745Z,1.93
2019-05-26T14:42:59.657Z,2.03
2019-05-26T14:45:28.588Z,2.10
2019-05-26T14:47:57.437Z,2.03
2019-05-26T14:50:27.425Z,2.10
2019-05-26T14:52:56.342Z,2.40
2019-05-26T14:55:25.196Z,1.90
2019-05-26T14:57:54.052Z,2.53
2019-05-26T15:00:23.471Z,2.10
2019-05-26T15:02:52.450Z,2.20
2019-05-26T15:05:21.453Z,2.37
2019-05-26T15:07:50.409Z,2.93
2019-05-26T15:10:22.611Z,2.57
2019-05-26T15:12:51.188Z,2.37
2019-05-26T15:15:23.148Z,2.10
2019-05-26T15:17:52.284Z,2.50
2019-05-26T15:20:21.385Z,2.30
2019-05-26T15:22:50.679Z,2.30
2019-05-26T15:25:20.082Z,2.30
2019-05-26T15:27:49.792Z,2.60
2019-05-26T15:30:19.070Z,2.50
2019-05-26T15:32:48.770Z,2.20
2019-05-26T15:35:17.896Z,2.47
2019-05-26T15:37:46.739Z,2.50
2019-05-26T15:40:15.953Z,2.40
2019-05-26T15:42:44.793Z,2.40
2019-05-26T15:45:14.077Z,3.13
2019-05-26T15:47:42.953Z,3.13
2019-05-26T15:50:13.696Z,2.40
2019-05-26T15:52:43.115Z,2.50
2019-05-26T15:55:12.337Z,2.40
2019-05-26T15:57:41.346Z,2.70
2019-05-26T16:00:11.725Z,2.43
2019-05-26T16:02:41.030Z,2.40
2019-05-26T16:05:10.218Z,2.50
2019-05-26T16:07:39.226Z,2.30
2019-05-26T16:10:08.566Z,3.20
2019-05-26T16:12:37.568Z,3.97
2019-05-26T16:15:06.672Z,2.70
2019-05-26T16:17:38.574Z,2.57
2019-05-26T16:20:07.549Z,2.83
2019-05-26T16:22:36.766Z,3.00
2019-05-26T16:25:06.383Z,4.67
2019-05-26T16:27:35.596Z,3.60
2019-05-26T16:30:04.833Z,3.60
2019-05-26T16:32:33.680Z,2.70
2019-05-26T16:35:02.731Z,2.80
2019-05-26T16:37:31.682Z,2.60
2019-05-26T16:40:00.676Z,4.07
2019-05-26T16:42:29.873Z,3.80
2019-05-26T16:44:58.787Z,3.80
2019-05-26T16:47:27.715Z,3.20
2019-05-26T16:49:56.641Z,4.80
2019-05-26T16:52:25.621Z,5.00
2019-05-26T16:54:54.806Z,4.23
2019-05-26T16:57:23.736Z,3.60
2019-05-26T16:59:52.669Z,3.77
2019-05-26T17:02:21.597Z,3.00
2019-05-26T17:04:50.860Z,2.53
2019-05-26T17:07:19.804Z,3.00
2019-05-26T17:09:48.967Z,2.67
2019-05-26T17:12:18.368Z,2.90
2019-05-26T17:14:47.297Z,3.90
2019-05-26T17:17:16.217Z,3.17
2019-05-26T17:19:45.073Z,2.60
2019-05-26T17:22:13.920Z,2.60
2019-05-26T17:24:42.768Z,3.13
2019-05-26T17:27:11.629Z,3.03
2019-05-26T17:29:40.552Z,2.40
2019-05-26T17:32:09.491Z,3.57
2019-05-26T17:34:38.345Z,2.50
2019-05-26T17:37:07.348Z,2.63
2019-05-26T17:39:36.196Z,2.40
2019-05-26T17:42:05.597Z,2.33
2019-05-26T17:44:34.454Z,2.37
2019-05-26T17:47:03.313Z,2.30
2019-05-26T17:49:32.245Z,2.30
2019-05-26T17:52:01.138Z,2.40
2019-05-26T17:54:30.147Z,2.63
2019-05-26T17:56:59.653Z,2.40
2019-05-26T17:59:28.880Z,2.90
2019-05-26T18:01:57.761Z,2.80
2019-05-26T18:04:26.766Z,3.00
2019-05-26T18:06:56.021Z,2.43
2019-05-26T18:09:24.965Z,2.63
2019-05-26T18:11:53.880Z,2.77
2019-05-26T18:14:23.114Z,3.23
2019-05-26T18:16:51.956Z,3.10
2019-05-26T18:19:20.818Z,2.80
2019-05-26T18:21:49.673Z,2.50
2019-05-26T18:24:18.877Z,3.17
2019-05-26T18:26:47.994Z,3.50
2019-05-26T18:29:16.848Z,3.57
2019-05-26T18:31:45.709Z,3.23
2019-05-26T18:34:14.591Z,3.20
2019-05-26T18:36:44.045Z,3.20
2019-05-26T18:39:13.245Z,3.83
2019-05-26T18:41:42.097Z,3.57
2019-05-26T18:44:10.969Z,3.27
2019-05-26T18:46:39.885Z,7.00
2019-05-26T18:49:09.122Z,8.47
2019-05-26T18:51:38.318Z,5.70
2019-05-26T18:54:07.425Z,5.20
2019-05-26T18:56:36.610Z,4.20
2019-05-26T18:59:06.109Z,3.37
2019-05-26T19:01:34.949Z,3.20
2019-05-26T19:04:03.877Z,3.37
2019-05-26T19:06:32.797Z,2.73
2019-05-26T19:09:01.726Z,3.13
2019-05-26T19:11:30.662Z,3.30
2019-05-26T19:13:59.527Z,3.40
2019-05-26T19:16:28.445Z,3.57
2019-05-26T19:18:57.309Z,3.60
2019-05-26T19:21:26.217Z,3.63
2019-05-26T19:23:55.439Z,3.60
2019-05-26T19:26:24.473Z,3.70
2019-05-26T19:28:53.471Z,3.47
2019-05-26T19:31:22.460Z,3.10
2019-05-26T19:33:51.521Z,2.50
2019-05-26T19:36:20.405Z,2.80
2019-05-26T19:38:49.606Z,2.73
2019-05-26T19:41:18.805Z,3.20
2019-05-26T19:43:47.750Z,2.63
2019-05-26T19:46:16.650Z,2.70
2019-05-26T19:48:45.577Z,3.20
2019-05-26T19:51:14.486Z,2.93
2019-05-26T19:53:43.336Z,3.00
2019-05-26T19:56:12.190Z,3.17
2019-05-26T19:58:41.120Z,3.43
2019-05-26T20:01:10.128Z,3.13
2019-05-26T20:03:39.545Z,3.10
2019-05-26T20:06:08.858Z,3.13
2019-05-26T20:08:37.826Z,3.40
2019-05-26T20:11:07.141Z,2.90
2019-05-26T20:13:36.025Z,2.97
2019-05-26T20:16:05.529Z,3.10
2019-05-26T20:18:34.944Z,3.70
2019-05-26T20:21:03.941Z,3.30
2019-05-26T20:23:33.010Z,3.00
2019-05-26T20:26:02.206Z,3.37
2019-05-26T20:28:31.587Z,3.77
2019-05-26T20:31:00.932Z,3.27
2019-05-26T20:33:33.007Z,3.57
2019-05-26T20:36:01.964Z,3.50
2019-05-26T20:38:30.810Z,3.50
2019-05-26T20:41:00.236Z,3.57
2019-05-26T20:43:29.332Z,3.27
2019-05-26T20:45:58.704Z,3.60
2019-05-26T20:48:28.170Z,4.00
2019-05-26T20:50:57.093Z,3.40
2019-05-26T20:53:26.007Z,3.90
2019-05-26T20:55:54.866Z,4.67
2019-05-26T20:58:24.253Z,5.37
2019-05-26T21:00:57.104Z,3.30
2019-05-26T21:03:32.791Z,3.10
2019-05-26T21:06:03.190Z,3.33
2019-05-26T21:08:42.945Z,3.30
2019-05-26T21:11:12.097Z,3.47
2019-05-26T21:13:41.362Z,3.60
2019-05-26T21:16:14.273Z,3.40
2019-05-26T21:18:43.281Z,3.30
2019-05-26T21:21:12.205Z,3.53
2019-05-26T21:23:41.932Z,3.93
2019-05-26T21:26:11.281Z,3.70
2019-05-26T21:28:40.752Z,3.97
2019-05-26T21:31:09.622Z,3.17
2019-05-26T21:33:39.067Z,3.43
2019-05-26T21:36:08.376Z,3.13
2019-05-26T21:38:37.647Z,3.30
2019-05-26T21:41:06.948Z,3.53
2019-05-26T21:43:38.984Z,4.17
2019-05-26T21:46:07.878Z,3.83
2019-05-26T21:48:36.724Z,4.77
2019-05-26T21:51:05.753Z,3.53
2019-05-26T21:53:34.673Z,4.17
2019-05-26T21:56:03.678Z,3.90
2019-05-26T21:58:32.529Z,3.70
2019-05-26T22:01:01.962Z,3.80
2019-05-26T22:03:30.973Z,3.50
2019-05-26T22:06:00.257Z,3.20
2019-05-26T22:08:29.562Z,3.40
2019-05-26T22:10:58.863Z,3.33
2019-05-26T22:13:28.059Z,4.10
2019-05-26T22:15:56.993Z,3.50
2019-05-26T22:18:25.845Z,3.07
2019-05-26T22:20:55.142Z,3.57
2019-05-26T22:23:23.992Z,3.87
2019-05-26T22:25:53.233Z,3.37
2019-05-26T22:28:22.081Z,3.33
2019-05-26T22:30:51.445Z,3.77
2019-05-26T22:33:20.314Z,3.67
2019-05-26T22:35:49.620Z,3.57
2019-05-26T22:38:18.749Z,3.67
2019-05-26T22:40:47.605Z,3.10
2019-05-26T22:43:16.529Z,3.63
2019-05-26T22:45:45.369Z,3.70
2019-05-26T22:48:14.225Z,3.63
2019-05-26T22:50:43.219Z,3.87
2019-05-26T22:53:12.096Z,3.77
2019-05-26T22:55:41.259Z,3.80
2019-05-26T22:58:10.192Z,3.10
2019-05-26T23:00:39.189Z,3.90
2019-05-26T23:03:08.050Z,3.63
2019-05-26T23:05:37.249Z,3.97
2019-05-26T23:08:06.185Z,3.60
2019-05-26T23:10:35.329Z,4.30
2019-05-26T23:13:04.518Z,3.83
2019-05-26T23:15:33.500Z,3.83
2019-05-26T23:18:02.369Z,3.73
2019-05-26T23:20:31.303Z,3.43
2019-05-26T23:23:00.153Z,3.67
2019-05-26T23:25:29.006Z,3.90
2019-05-26T23:27:57.941Z,3.60
2019-05-26T23:30:27.169Z,3.87
2019-05-26T23:32:56.384Z,3.70
2019-05-26T23:35:25.241Z,4.30
2019-05-26T23:37:54.201Z,3.90
2019-05-26T23:40:23.045Z,4.07
2019-05-26T23:42:51.974Z,3.83
2019-05-26T23:45:21.224Z,3.60
2019-05-26T23:47:50.077Z,3.90
2019-05-26T23:50:19.077Z,4.23
2019-05-26T23:52:48.209Z,3.97
2019-05-26T23:55:17.212Z,3.90
2019-05-26T23:57:46.785Z,4.43
